Time;durP1;ratioP1;P1;durP2;ratioP2;P2;SDS_P1;SDS_P2;PMS_P1;PMS_P2;Temp;Humidity;BMP_temperature;BMP_pressure;BME280_temperature;BME280_humidity;BME280_pressure;Samples;Min_cycle;Max_cycle;Signal;HPM_P1;HPM_P2
2023/01/08 00:02:10;;;;;;;3.95;2.20;;;10.90;99.90;;;;;;5037973;28;20032;-85
2023/01/08 00:04:36;;;;;;;4.15;2.15;;;10.80;99.90;;;;;;5054216;28;20536;-85
2023/01/08 00:07:02;;;;;;;6.00;2.72;;;10.90;99.90;;;;;;5054324;28;20029;-85
2023/01/08 00:09:27;;;;;;;3.35;2.28;;;10.90;99.90;;;;;;5053472;28;20053;-86
2023/01/08 00:11:53;;;;;;;5.13;2.33;;;10.90;99.90;;;;;;5037731;28;20025;-85
2023/01/08 00:14:18;;;;;;;3.30;2.15;;;11.00;99.90;;;;;;5021359;28;20047;-85
2023/01/08 00:16:44;;;;;;;4.22;2.40;;;10.90;99.90;;;;;;5054380;28;20032;-85
2023/01/08 00:19:11;;;;;;;4.50;2.33;;;10.90;99.90;;;;;;5054228;28;20037;-85
2023/01/08 00:21:37;;;;;;;4.13;2.65;;;11.00;99.90;;;;;;5054502;28;20123;-84
2023/01/08 00:24:03;;;;;;;5.90;2.40;;;11.00;99.90;;;;;;5021260;28;20112;-85
2023/01/08 00:26:29;;;;;;;3.05;1.90;;;11.00;99.90;;;;;;5037486;28;20461;-85
2023/01/08 00:28:54;;;;;;;3.47;1.85;;;11.10;99.90;;;;;;5054225;28;20029;-85
2023/01/08 00:31:20;;;;;;;5.45;2.33;;;11.00;99.90;;;;;;5037948;28;20056;-86
2023/01/08 00:33:46;;;;;;;5.47;2.13;;;11.00;99.90;;;;;;5021248;28;20405;-85
2023/01/08 00:36:17;;;;;;;5.40;2.42;;;11.10;99.90;;;;;;5054087;28;20037;-85
2023/01/08 00:38:44;;;;;;;6.70;3.00;;;11.10;99.90;;;;;;5059265;28;20055;-85
2023/01/08 00:41:10;;;;;;;3.78;2.20;;;11.10;99.90;;;;;;5038092;28;20062;-85
2023/01/08 00:43:36;;;;;;;4.78;2.30;;;11.10;99.90;;;;;;5038174;28;20025;-85
2023/01/08 00:46:02;;;;;;;5.13;2.25;;;11.00;99.90;;;;;;5075241;28;20067;-85
2023/01/08 00:48:28;;;;;;;5.07;2.30;;;11.00;99.90;;;;;;5076281;28;20029;-85
2023/01/08 00:50:54;;;;;;;5.03;2.35;;;11.10;99.90;;;;;;5045584;28;20529;-85
2023/01/08 00:53:21;;;;;;;4.32;2.30;;;11.10;99.90;;;;;;5054879;28;20410;-85
2023/01/08 00:55:46;;;;;;;4.68;2.20;;;11.10;99.90;;;;;;5057673;28;20103;-85
2023/01/08 00:58:14;;;;;;;6.78;2.60;;;11.10;99.90;;;;;;5057879;28;20052;-85
2023/01/08 01:00:40;;;;;;;4.45;2.38;;;11.10;99.90;;;;;;5057872;28;20029;-87
2023/01/08 01:03:06;;;;;;;4.95;2.22;;;11.10;99.90;;;;;;5039137;28;20032;-85
2023/01/08 01:05:34;;;;;;;11.50;2.30;;;11.10;99.90;;;;;;5057601;28;20111;-86
2023/01/08 01:08:00;;;;;;;5.18;2.25;;;11.10;99.90;;;;;;5031091;28;20033;-86
2023/01/08 01:10:25;;;;;;;5.40;2.47;;;11.10;99.90;;;;;;5075280;28;20044;-86
2023/01/08 01:12:51;;;;;;;6.13;2.50;;;11.10;99.90;;;;;;5061978;28;20025;-85
2023/01/08 01:15:17;;;;;;;5.18;2.60;;;11.10;99.90;;;;;;5038183;28;20025;-85
2023/01/08 01:17:45;;;;;;;8.57;3.03;;;11.00;99.90;;;;;;5036915;28;20480;-85
2023/01/08 01:20:14;;;;;;;5.25;2.60;;;11.00;99.90;;;;;;5054642;28;20151;-86
2023/01/08 01:22:40;;;;;;;4.97;2.25;;;11.00;99.90;;;;;;5053375;28;20465;-86
2023/01/08 01:25:06;;;;;;;5.45;2.67;;;11.10;99.90;;;;;;5020633;28;20032;-86
2023/01/08 01:27:32;;;;;;;5.95;2.28;;;11.10;99.90;;;;;;5053623;28;20099;-86
2023/01/08 01:29:59;;;;;;;5.90;2.35;;;11.10;99.90;;;;;;5053249;28;20040;-85
2023/01/08 01:32:24;;;;;;;6.60;2.28;;;11.00;99.90;;;;;;5036853;28;20082;-86
2023/01/08 01:34:50;;;;;;;6.53;2.28;;;11.10;99.90;;;;;;5036202;28;20123;-86
2023/01/08 01:37:15;;;;;;;4.78;2.30;;;11.00;99.90;;;;;;5036221;28;20040;-85
2023/01/08 01:39:48;;;;;;;4.75;2.28;;;11.00;99.90;;;;;;5036070;28;20477;-86
2023/01/08 01:42:58;;;;;;;5.78;2.47;;;11.00;99.90;;;;;;5053063;28;20457;-86
2023/01/08 01:45:21;;;;;;;8.82;2.65;;;10.90;99.90;;;;;;5042319;28;20033;-86
2023/01/08 01:47:54;;;;;;;6.28;2.28;;;11.00;99.90;;;;;;5052867;28;20060;-86
2023/01/08 01:50:43;;;;;;;6.53;2.47;;;10.90;99.90;;;;;;5052889;28;20021;-85
2023/01/08 01:53:21;;;;;;;4.47;2.53;;;10.90;99.90;;;;;;5052862;28;20032;-85
2023/01/08 01:55:47;;;;;;;4.55;2.25;;;10.90;99.90;;;;;;5047522;28;20049;-85
2023/01/08 01:58:18;;;;;;;7.07;2.50;;;10.90;99.90;;;;;;5053104;28;20118;-85
2023/01/08 02:00:43;;;;;;;8.45;2.92;;;10.90;99.90;;;;;;5052585;28;20162;-86
2023/01/08 02:03:11;;;;;;;3.85;2.38;;;10.90;99.90;;;;;;5019839;28;20536;-85
2023/01/08 02:05:55;;;;;;;6.00;2.63;;;10.80;99.90;;;;;;5052890;28;20331;-85
2023/01/08 02:08:35;;;;;;;6.88;2.83;;;10.80;99.90;;;;;;5052888;28;20599;-85
2023/01/08 02:11:12;;;;;;;6.50;2.50;;;10.80;99.90;;;;;;5052295;28;20056;-85
2023/01/08 02:13:42;;;;;;;6.22;2.85;;;10.80;99.90;;;;;;5053004;28;20017;-85
2023/01/08 02:16:19;;;;;;;6.78;2.60;;;10.90;99.90;;;;;;5053478;28;20056;-85
2023/01/08 02:18:53;;;;;;;5.20;2.25;;;10.90;99.90;;;;;;5052793;28;20175;-85
2023/01/08 02:21:39;;;;;;;6.63;2.40;;;10.90;99.90;;;;;;5053483;28;20116;-85
2023/01/08 02:24:28;;;;;;;7.85;2.10;;;10.90;99.90;;;;;;5055334;28;20036;-85
2023/01/08 02:26:56;;;;;;;4.75;2.20;;;10.90;99.90;;;;;;5054998;28;20033;-85
2023/01/08 02:29:24;;;;;;;5.88;2.45;;;10.90;99.90;;;;;;5056278;28;20457;-85
2023/01/08 02:31:51;;;;;;;5.72;2.78;;;10.90;99.90;;;;;;5056288;28;20028;-85
2023/01/08 02:34:16;;;;;;;5.80;2.58;;;10.90;99.90;;;;;;5056098;28;20025;-85
2023/01/08 02:36:50;;;;;;;6.18;2.33;;;10.90;99.90;;;;;;5039620;28;20035;-87
2023/01/08 02:39:23;;;;;;;7.10;2.70;;;11.00;99.90;;;;;;5056335;28;20119;-85
2023/01/08 02:42:05;;;;;;;5.22;2.30;;;11.00;99.90;;;;;;5057460;28;20035;-86
2023/01/08 02:44:40;;;;;;;5.30;2.40;;;11.00;99.90;;;;;;5056333;28;20535;-85
2023/01/08 02:47:14;;;;;;;5.60;2.60;;;11.00;99.90;;;;;;5060975;28;20469;-85
2023/01/08 02:49:43;;;;;;;7.60;2.20;;;11.00;99.90;;;;;;5056008;28;20070;-85
2023/01/08 02:52:13;;;;;;;5.07;2.30;;;11.00;99.90;;;;;;5055559;28;20111;-85
2023/01/08 02:54:41;;;;;;;5.18;2.40;;;10.90;99.90;;;;;;5055829;28;20024;-85
2023/01/08 02:57:12;;;;;;;4.82;2.17;;;10.90;99.90;;;;;;5055855;28;20075;-84
2023/01/08 02:59:39;;;;;;;;;;;10.80;99.90;;;;;;5056770;28;20025;-85
2023/01/08 03:02:05;;;;;;;5.60;1.70;;;10.80;99.90;;;;;;5056962;28;19935;-85
2023/01/08 03:04:38;;;;;;;3.67;1.45;;;10.70;99.90;;;;;;5055261;28;20063;-85
2023/01/08 03:07:03;;;;;;;5.32;1.50;;;10.60;99.90;;;;;;5055296;28;20108;-85
2023/01/08 03:09:29;;;;;;;5.13;1.90;;;10.60;99.90;;;;;;5038812;28;20552;-85
2023/01/08 03:12:10;;;;;;;3.85;1.17;;;10.50;99.90;;;;;;5043187;28;20107;-85
2023/01/08 03:14:42;;;;;;;3.78;1.00;;;10.40;99.90;;;;;;5079949;28;20039;-84
2023/01/08 03:17:25;;;;;;;5.40;1.40;;;10.40;99.90;;;;;;5072163;28;20032;-85
2023/01/08 03:20:00;;;;;;;2.30;1.10;;;10.30;99.90;;;;;;5057201;28;20116;-86
2023/01/08 03:22:29;;;;;;;12.27;1.42;;;10.20;99.90;;;;;;5056552;28;20043;-85
2023/01/08 03:24:57;;;;;;;5.07;1.00;;;10.20;99.90;;;;;;5054928;28;20021;-86
2023/01/08 03:27:28;;;;;;;6.00;1.15;;;10.10;99.90;;;;;;5056296;28;20024;-85
2023/01/08 03:29:57;;;;;;;3.20;0.90;;;10.10;99.90;;;;;;5059893;28;20075;-86
2023/01/08 03:32:24;;;;;;;5.18;1.40;;;10.00;99.90;;;;;;5056233;28;20025;-85
2023/01/08 03:34:53;;;;;;;5.28;1.10;;;10.10;99.90;;;;;;5057156;28;20116;-85
2023/01/08 03:37:23;;;;;;;4.68;0.90;;;10.00;99.90;;;;;;5058664;28;20389;-85
2023/01/08 03:40:00;;;;;;;6.00;1.23;;;10.00;99.90;;;;;;5055242;28;20123;-86
2023/01/08 03:42:29;;;;;;;6.63;1.48;;;10.00;99.90;;;;;;5055314;28;20377;-85
2023/01/08 03:44:55;;;;;;;8.68;1.40;;;9.90;99.90;;;;;;5054700;28;20017;-85
2023/01/08 03:47:22;;;;;;;5.43;1.15;;;9.90;99.90;;;;;;5021706;28;20029;-85
2023/01/08 03:49:49;;;;;;;4.20;1.20;;;9.80;99.90;;;;;;5054494;28;20454;-85
2023/01/08 03:52:29;;;;;;;6.90;1.42;;;9.80;99.90;;;;;;5054722;28;20032;-85
2023/01/08 03:54:55;;;;;;;5.10;1.17;;;9.80;99.90;;;;;;5055358;28;20024;-86
2023/01/08 03:57:21;;;;;;;4.50;1.08;;;9.80;99.90;;;;;;5055016;28;20483;-86
2023/01/08 03:59:47;;;;;;;3.72;0.90;;;9.80;99.90;;;;;;5054618;28;20531;-86
2023/01/08 04:02:14;;;;;;;4.15;1.10;;;9.80;99.90;;;;;;5038283;28;20457;-85
2023/01/08 04:04:40;;;;;;;3.83;0.95;;;9.80;99.90;;;;;;5037710;28;20144;-85
2023/01/08 04:07:06;;;;;;;5.60;1.02;;;9.80;99.90;;;;;;5054164;28;20025;-86
2023/01/08 04:09:34;;;;;;;3.08;0.80;;;9.70;99.90;;;;;;5054075;28;20481;-85
2023/01/08 04:12:00;;;;;;;5.30;0.98;;;9.70;99.90;;;;;;5021680;28;20029;-85
2023/01/08 04:14:26;;;;;;;5.20;1.00;;;9.70;99.90;;;;;;5038415;28;20033;-85
2023/01/08 04:16:51;;;;;;;6.15;2.17;;;9.70;99.90;;;;;;5037750;28;20383;-85
2023/01/08 04:19:17;;;;;;;6.40;1.10;;;9.80;99.90;;;;;;5054207;28;20061;-85
2023/01/08 04:21:42;;;;;;;4.47;1.38;;;9.70;99.90;;;;;;5038204;28;20515;-85
2023/01/08 04:24:10;;;;;;;5.85;1.10;;;9.70;99.90;;;;;;5021241;28;20029;-86
2023/01/08 04:26:35;;;;;;;8.90;1.40;;;9.70;99.90;;;;;;5037809;28;20025;-85
2023/01/08 04:29:03;;;;;;;4.40;1.02;;;9.70;99.90;;;;;;5037630;28;20380;-85
2023/01/08 04:31:29;;;;;;;5.95;1.05;;;9.70;99.90;;;;;;5054322;28;20203;-85
2023/01/08 04:33:54;;;;;;;7.53;1.33;;;9.70;99.90;;;;;;5037803;28;20025;-85
2023/01/08 04:36:20;;;;;;;5.90;1.13;;;9.60;99.90;;;;;;5056358;28;20047;-85
2023/01/08 04:38:45;;;;;;;6.60;1.27;;;9.60;99.90;;;;;;5058205;28;20350;-85
2023/01/08 04:41:11;;;;;;;7.40;1.38;;;9.60;99.90;;;;;;5038004;28;20036;-86
2023/01/08 04:43:37;;;;;;;7.63;1.52;;;9.60;99.90;;;;;;5058815;28;20025;-85
2023/01/08 04:46:06;;;;;;;7.65;1.35;;;9.60;99.90;;;;;;5060137;28;20044;-86
2023/01/08 04:48:32;;;;;;;5.45;0.98;;;9.60;99.90;;;;;;5061191;28;20021;-86
2023/01/08 04:50:59;;;;;;;5.30;1.20;;;9.60;99.90;;;;;;5053694;28;20051;-86
2023/01/08 04:53:25;;;;;;;4.68;0.90;;;9.60;99.90;;;;;;5055626;28;20032;-85
2023/01/08 04:55:51;;;;;;;5.03;0.90;;;9.60;99.90;;;;;;5055296;28;20021;-85
2023/01/08 04:58:17;;;;;;;5.45;0.88;;;9.60;99.90;;;;;;5038406;28;20388;-85
2023/01/08 05:00:42;;;;;;;6.28;1.20;;;9.60;99.90;;;;;;5037881;28;20025;-85
2023/01/08 05:03:08;;;;;;;5.53;1.75;;;9.60;99.90;;;;;;5037465;28;20051;-85
2023/01/08 05:05:34;;;;;;;2.95;1.20;;;9.60;99.90;;;;;;5037466;28;20033;-84
2023/01/08 05:08:03;;;;;;;6.93;1.30;;;9.70;99.90;;;;;;5053809;28;20487;-87
2023/01/08 05:10:29;;;;;;;6.70;1.45;;;9.70;99.90;;;;;;5037429;28;20052;-86
2023/01/08 05:12:59;;;;;;;9.02;1.27;;;9.70;99.90;;;;;;5053366;28;20095;-86
2023/01/08 05:15:25;;;;;;;3.55;1.08;;;9.70;99.90;;;;;;5053754;28;20029;-86
2023/01/08 05:18:02;;;;;;;4.70;0.98;;;9.70;99.90;;;;;;5053029;28;20469;-86
2023/01/08 05:20:27;;;;;;;5.80;1.10;;;9.70;99.90;;;;;;5054107;28;20051;-87
2023/01/08 05:22:53;;;;;;;7.50;1.40;;;9.60;99.90;;;;;;5053298;28;20027;-85
2023/01/08 05:25:19;;;;;;;4.95;1.20;;;9.60;99.90;;;;;;5037159;28;20043;-86
2023/01/08 05:27:46;;;;;;;5.90;1.52;;;9.60;99.90;;;;;;5054701;28;20036;-85
2023/01/08 05:30:12;;;;;;;6.05;1.65;;;9.60;99.90;;;;;;5053402;28;20136;-85
2023/01/08 05:32:37;;;;;;;6.72;1.20;;;9.60;99.90;;;;;;5036986;28;20033;-85
2023/01/08 05:35:03;;;;;;;5.72;1.38;;;9.60;99.90;;;;;;5053945;28;20033;-87
2023/01/08 05:37:29;;;;;;;7.03;1.75;;;9.60;99.90;;;;;;5053608;28;20116;-85
2023/01/08 05:39:55;;;;;;;6.80;1.30;;;9.60;99.90;;;;;;5041752;28;20055;-86
2023/01/08 05:42:20;;;;;;;5.85;1.48;;;9.60;99.90;;;;;;5059307;28;20025;-85
2023/01/08 05:44:46;;;;;;;4.18;1.30;;;9.60;99.90;;;;;;5053675;28;20040;-85
2023/01/08 05:47:12;;;;;;;6.18;1.35;;;9.60;99.90;;;;;;5022548;28;20096;-86
2023/01/08 05:49:37;;;;;;;3.97;1.20;;;9.60;99.90;;;;;;5054494;28;20032;-85
2023/01/08 05:52:03;;;;;;;4.32;1.20;;;9.60;99.90;;;;;;5036299;28;20154;-85
2023/01/08 05:54:29;;;;;;;7.38;1.45;;;9.60;99.90;;;;;;5036952;28;20030;-85
2023/01/08 05:56:54;;;;;;;5.25;1.30;;;9.60;99.90;;;;;;5054870;28;20038;-85
2023/01/08 05:59:20;;;;;;;6.18;1.80;;;9.60;99.90;;;;;;5040167;28;20032;-86
2023/01/08 06:01:46;;;;;;;5.03;2.10;;;9.60;99.90;;;;;;5056808;28;20055;-86
2023/01/08 06:04:11;;;;;;;5.50;1.10;;;9.60;99.90;;;;;;5039840;28;20384;-86
2023/01/08 06:06:37;;;;;;;3.88;1.10;;;9.60;99.90;;;;;;5040462;28;20075;-85
2023/01/08 06:09:02;;;;;;;3.85;1.20;;;9.60;99.90;;;;;;5040202;28;20503;-86
2023/01/08 06:11:28;;;;;;;4.82;1.17;;;9.60;99.90;;;;;;5059721;28;20049;-85
2023/01/08 06:13:54;;;;;;;5.03;1.30;;;9.60;99.90;;;;;;5026870;28;20119;-86
2023/01/08 06:16:19;;;;;;;2.53;0.90;;;9.60;99.90;;;;;;5043148;28;20115;-85
2023/01/08 06:18:45;;;;;;;2.35;1.00;;;9.60;99.90;;;;;;5060088;28;20472;-86
2023/01/08 06:21:12;;;;;;;3.50;1.05;;;9.70;99.90;;;;;;5059873;28;20067;-86
2023/01/08 06:23:38;;;;;;;3.42;0.93;;;9.70;99.90;;;;;;5059795;28;20020;-85
2023/01/08 06:26:04;;;;;;;3.80;1.67;;;9.70;99.90;;;;;;5027001;28;20025;-85
2023/01/08 06:28:31;;;;;;;2.47;0.95;;;9.70;99.90;;;;;;5042839;28;20037;-86
2023/01/08 06:30:58;;;;;;;6.55;1.10;;;9.60;99.90;;;;;;5059607;28;20081;-86
2023/01/08 06:33:23;;;;;;;1.40;0.95;;;9.70;99.90;;;;;;5077181;28;20150;-86
2023/01/08 06:35:49;;;;;;;5.10;1.10;;;9.60;99.90;;;;;;5059340;28;20046;-85
2023/01/08 06:38:17;;;;;;;6.13;1.30;;;9.70;99.90;;;;;;5059074;28;20032;-86
2023/01/08 06:40:43;;;;;;;3.13;0.90;;;9.60;99.90;;;;;;5059428;28;20032;-85
2023/01/08 06:43:09;;;;;;;3.42;1.13;;;9.60;99.90;;;;;;5042859;28;20037;-85
2023/01/08 06:45:35;;;;;;;3.13;0.80;;;9.60;99.90;;;;;;5042709;28;20098;-85
2023/01/08 06:48:02;;;;;;;4.82;1.10;;;9.50;99.90;;;;;;5042860;28;20021;-86
2023/01/08 06:50:28;;;;;;;4.63;1.40;;;9.50;99.90;;;;;;5042617;28;20039;-85
2023/01/08 06:52:55;;;;;;;4.90;1.55;;;9.50;99.90;;;;;;5059420;28;20111;-86
2023/01/08 06:55:22;;;;;;;5.60;1.25;;;9.50;99.90;;;;;;5058953;28;20025;-85
2023/01/08 06:57:52;;;;;;;4.18;1.25;;;9.50;99.90;;;;;;5042837;28;20067;-86
2023/01/08 07:00:18;;;;;;;4.35;1.10;;;9.40;99.90;;;;;;5060512;28;20042;-86
2023/01/08 07:02:43;;;;;;;3.90;1.20;;;9.40;99.90;;;;;;5048074;28;20111;-86
2023/01/08 07:05:09;;;;;;;6.30;1.25;;;9.40;99.90;;;;;;5042969;28;20028;-86
2023/01/08 07:07:35;;;;;;;5.07;1.13;;;9.30;99.90;;;;;;5041978;28;20064;-86
2023/01/08 07:10:01;;;;;;;4.50;1.17;;;9.30;99.90;;;;;;5057947;28;20423;-86
2023/01/08 07:12:26;;;;;;;5.53;1.30;;;9.30;99.90;;;;;;5025599;28;20068;-86
2023/01/08 07:14:52;;;;;;;9.13;1.13;;;9.20;99.90;;;;;;5076601;28;20032;-85
2023/01/08 07:17:17;;;;;;;5.25;1.17;;;9.20;99.90;;;;;;5042406;28;20040;-85
2023/01/08 07:19:43;;;;;;;5.38;1.40;;;9.20;99.90;;;;;;5042011;28;20036;-85
2023/01/08 07:22:09;;;;;;;4.35;1.13;;;9.20;99.90;;;;;;5025283;28;20395;-86
2023/01/08 07:24:34;;;;;;;5.22;1.17;;;9.10;99.90;;;;;;5025475;28;20028;-86
2023/01/08 07:27:00;;;;;;;5.40;1.27;;;9.10;99.90;;;;;;5042513;28;20043;-86
2023/01/08 07:29:26;;;;;;;4.50;1.38;;;9.20;99.90;;;;;;5058713;28;20029;-86
2023/01/08 07:31:52;;;;;;;6.22;1.13;;;9.10;99.90;;;;;;5025739;28;20024;-85
2023/01/08 07:34:17;;;;;;;5.40;1.38;;;9.10;99.90;;;;;;5058606;28;20103;-86
2023/01/08 07:36:43;;;;;;;5.45;1.80;;;9.10;99.90;;;;;;5041862;28;20444;-85
2023/01/08 07:39:09;;;;;;;6.18;1.30;;;9.00;99.90;;;;;;5025259;28;20127;-85
2023/01/08 07:41:35;;;;;;;5.90;1.23;;;9.00;99.90;;;;;;5058435;28;20039;-86
2023/01/08 07:44:00;;;;;;;5.47;2.45;;;9.00;99.90;;;;;;5025228;28;20028;-85
2023/01/08 07:46:26;;;;;;;4.68;1.20;;;9.00;99.90;;;;;;5041938;28;20032;-85
2023/01/08 07:48:52;;;;;;;8.35;1.50;;;9.00;99.90;;;;;;5058740;28;20085;-86
2023/01/08 07:51:17;;;;;;;10.90;1.98;;;9.00;99.90;;;;;;5041701;28;20020;-85
2023/01/08 07:53:43;;;;;;;6.53;2.00;;;8.90;99.90;;;;;;5025471;28;20028;-85
2023/01/08 07:56:09;;;;;;;10.85;1.35;;;9.00;99.90;;;;;;5041962;28;20440;-85
2023/01/08 07:58:36;;;;;;;9.75;1.60;;;9.00;99.90;;;;;;5058438;28;20040;-86
2023/01/08 08:01:02;;;;;;;5.90;1.50;;;8.90;99.90;;;;;;5041840;28;20116;-85
2023/01/08 08:03:28;;;;;;;11.75;1.80;;;8.90;99.90;;;;;;5041638;28;20028;-84
2023/01/08 08:05:53;;;;;;;7.15;1.50;;;8.90;99.90;;;;;;5041876;28;20024;-85
2023/01/08 08:08:19;;;;;;;9.52;2.35;;;8.90;99.90;;;;;;5069944;28;20012;-84
2023/01/08 08:10:45;;;;;;;6.60;1.48;;;8.90;99.90;;;;;;5065396;28;20036;-86
2023/01/08 08:13:11;;;;;;;7.40;1.85;;;8.90;99.90;;;;;;5076577;28;20036;-86
2023/01/08 08:15:38;;;;;;;4.90;1.20;;;8.80;99.90;;;;;;5058862;28;20032;-85
2023/01/08 08:18:04;;;;;;;5.95;1.40;;;8.80;99.90;;;;;;5060817;28;20032;-86
2023/01/08 08:20:30;;;;;;;7.88;1.60;;;8.80;99.90;;;;;;5046242;28;20055;-87
2023/01/08 08:23:04;;;;;;;7.03;1.60;;;8.80;99.90;;;;;;5064608;28;20024;-86
2023/01/08 08:25:30;;;;;;;6.70;1.40;;;8.70;99.90;;;;;;5096059;28;20035;-87
2023/01/08 08:27:58;;;;;;;6.53;1.27;;;8.70;99.90;;;;;;5064002;28;20029;-86
2023/01/08 08:30:27;;;;;;;6.18;1.30;;;8.70;99.90;;;;;;5051648;28;20028;-88
2023/01/08 08:32:53;;;;;;;7.30;1.45;;;8.70;99.90;;;;;;5063526;28;20123;-85
2023/01/08 08:35:20;;;;;;;8.90;1.52;;;8.70;99.90;;;;;;5063247;28;20032;-86
2023/01/08 08:37:46;;;;;;;11.00;1.92;;;8.70;99.90;;;;;;5042011;28;20456;-86
2023/01/08 08:40:14;;;;;;;13.07;2.65;;;8.70;99.90;;;;;;5060217;28;20138;-85
2023/01/08 08:42:39;;;;;;;7.68;1.45;;;8.70;99.90;;;;;;5043624;28;20575;-85
2023/01/08 08:45:06;;;;;;;9.77;1.45;;;8.70;99.90;;;;;;5042751;28;20024;-85
2023/01/08 08:47:33;;;;;;;9.68;1.65;;;8.70;99.90;;;;;;5043421;28;20028;-86
2023/01/08 08:49:58;;;;;;;9.20;1.55;;;8.70;99.90;;;;;;5042386;28;20031;-85
2023/01/08 08:52:24;;;;;;;7.50;1.40;;;8.70;99.90;;;;;;5042062;28;20056;-85
2023/01/08 08:54:50;;;;;;;7.00;1.40;;;8.70;99.90;;;;;;5041620;28;20029;-86
2023/01/08 08:57:16;;;;;;;9.52;1.67;;;8.70;99.90;;;;;;5059825;28;20443;-86
2023/01/08 08:59:42;;;;;;;11.55;1.73;;;8.70;99.90;;;;;;5025746;28;20067;-86
2023/01/08 09:02:09;;;;;;;6.95;1.63;;;8.70;99.90;;;;;;5060184;28;20025;-85
2023/01/08 09:04:35;;;;;;;7.85;2.13;;;8.70;99.90;;;;;;5057110;28;20111;-85
2023/01/08 09:07:01;;;;;;;6.70;1.35;;;8.70;99.90;;;;;;5041550;28;20060;-85
2023/01/08 09:09:26;;;;;;;8.05;1.38;;;8.80;99.90;;;;;;5060602;28;20037;-88
2023/01/08 09:11:53;;;;;;;8.80;1.92;;;8.80;99.90;;;;;;5054670;28;20057;-85
2023/01/08 09:14:20;;;;;;;7.55;1.35;;;8.80;99.90;;;;;;5046185;28;20048;-86
2023/01/08 09:16:46;;;;;;;11.10;1.90;;;8.90;99.90;;;;;;5037292;28;20495;-85
2023/01/08 09:19:11;;;;;;;8.80;2.05;;;8.90;99.90;;;;;;5053399;28;20033;-85
2023/01/08 09:21:37;;;;;;;9.35;2.22;;;8.90;99.90;;;;;;5053382;28;20025;-86
2023/01/08 09:24:03;;;;;;;13.07;1.48;;;8.90;99.90;;;;;;5036444;28;20041;-86
2023/01/08 09:26:29;;;;;;;8.70;1.52;;;9.00;99.90;;;;;;5036847;28;20033;-86
2023/01/08 09:28:56;;;;;;;7.72;1.38;;;8.90;99.90;;;;;;5054674;28;20032;-84
2023/01/08 09:31:23;;;;;;;8.60;2.03;;;9.00;99.90;;;;;;5053989;28;20033;-86
2023/01/08 09:33:49;;;;;;;11.75;1.58;;;9.00;99.90;;;;;;5037327;28;20032;-86
2023/01/08 09:36:18;;;;;;;5.68;1.33;;;8.90;99.90;;;;;;5053518;28;20473;-86
2023/01/08 09:38:44;;;;;;;7.65;1.58;;;9.00;99.90;;;;;;5053139;28;20029;-85
2023/01/08 09:41:31;;;;;;;9.32;2.03;;;9.00;99.90;;;;;;5053051;28;20032;-86
2023/01/08 09:43:59;;;;;;;11.02;2.60;;;9.00;99.90;;;;;;5053469;28;20048;-86
2023/01/08 09:46:27;;;;;;;7.45;1.25;;;9.00;99.90;;;;;;5053091;28;20047;-85
2023/01/08 09:48:58;;;;;;;10.27;2.05;;;9.00;99.90;;;;;;5053133;28;20035;-86
2023/01/08 09:51:26;;;;;;;;;;;9.00;99.90;;;;;;5053503;28;20071;-87
2023/01/08 09:53:56;;;;;;;5.57;1.67;;;8.90;99.90;;;;;;5054299;28;20281;-85
2023/01/08 09:56:22;;;;;;;10.77;1.63;;;8.90;99.90;;;;;;5053070;28;20021;-86
2023/01/08 09:58:53;;;;;;;7.68;1.55;;;8.90;99.90;;;;;;5054103;28;20063;-85
2023/01/08 10:01:33;;;;;;;10.45;2.38;;;8.90;99.90;;;;;;5053985;28;20029;-86
2023/01/08 10:04:12;;;;;;;13.20;2.43;;;8.90;99.90;;;;;;5053597;28;20465;-86
2023/01/08 10:06:39;;;;;;;8.13;1.60;;;8.80;99.90;;;;;;5053093;28;20082;-85
2023/01/08 10:09:13;;;;;;;8.65;1.90;;;8.90;99.90;;;;;;5053191;28;20037;-86
2023/01/08 10:11:43;;;;;;;8.13;1.73;;;8.90;99.90;;;;;;5052762;28;20275;-88
2023/01/08 10:14:21;;;;;;;10.50;1.90;;;8.90;99.90;;;;;;5054677;28;20047;-87
2023/01/08 10:16:59;;;;;;;14.15;3.22;;;8.90;99.90;;;;;;5053239;28;20021;-88
2023/01/08 10:19:25;;;;;;;8.60;2.55;;;8.90;99.90;;;;;;5055453;28;20116;-85
2023/01/08 10:21:52;;;;;;;8.20;1.42;;;8.90;99.90;;;;;;5019981;28;20064;-86
2023/01/08 10:24:34;;;;;;;11.05;2.63;;;9.00;99.90;;;;;;5037689;28;20083;-86
2023/01/08 10:27:22;;;;;;;9.10;1.80;;;8.90;99.90;;;;;;5053275;28;20025;-87
2023/01/08 10:29:51;;;;;;;9.15;2.03;;;9.00;99.90;;;;;;5052928;28;20025;-85
2023/01/08 10:32:30;;;;;;;8.52;1.85;;;9.00;99.90;;;;;;5036506;28;20021;-86
2023/01/08 10:34:57;;;;;;;8.77;2.15;;;9.00;99.90;;;;;;5060336;28;20029;-86
2023/01/08 10:37:36;;;;;;;9.02;1.98;;;9.00;99.90;;;;;;5072240;28;20096;-86
2023/01/08 10:40:30;;;;;;;12.15;2.25;;;9.10;99.90;;;;;;5063091;28;20036;-85
2023/01/08 10:43:04;;;;;;;11.65;2.38;;;9.20;99.90;;;;;;5010164;28;20033;-87
2023/01/08 10:45:30;;;;;;;6.80;2.08;;;9.20;99.90;;;;;;5057709;28;20025;-85
2023/01/08 10:48:03;;;;;;;6.05;1.70;;;9.30;99.90;;;;;;5056345;28;20033;-87
2023/01/08 10:50:32;;;;;;;10.43;1.77;;;9.30;99.90;;;;;;5056455;28;20166;-89
2023/01/08 10:53:20;;;;;;;10.40;2.42;;;9.40;99.90;;;;;;5039597;28;20028;-86
2023/01/08 10:56:03;;;;;;;11.95;2.42;;;9.50;99.90;;;;;;5057239;28;20021;-86
2023/01/08 10:58:29;;;;;;;8.68;1.67;;;9.60;99.90;;;;;;5056355;28;20064;-86
2023/01/08 11:01:08;;;;;;;12.32;2.25;;;9.60;99.90;;;;;;5039598;28;20120;-86
2023/01/08 11:03:34;;;;;;;10.50;1.80;;;9.70;99.90;;;;;;5057022;28;20025;-85
2023/01/08 11:06:10;;;;;;;12.05;2.08;;;9.70;99.90;;;;;;5022549;28;20144;-84
2023/01/08 11:08:36;;;;;;;5.88;1.52;;;9.70;99.90;;;;;;5056173;28;20017;-86
2023/01/08 11:11:01;;;;;;;8.38;1.77;;;9.80;99.90;;;;;;5055403;28;20562;-86
2023/01/08 11:13:28;;;;;;;8.25;1.50;;;9.80;99.90;;;;;;5056671;28;20352;-86
2023/01/08 11:16:06;;;;;;;8.50;2.03;;;9.70;99.90;;;;;;5040109;28;20492;-86
2023/01/08 11:18:45;;;;;;;6.50;1.88;;;9.80;99.90;;;;;;5058240;28;20056;-85
2023/01/08 11:21:37;;;;;;;6.13;1.90;;;9.80;99.90;;;;;;5055639;28;20047;-85
2023/01/08 11:24:23;;;;;;;7.55;1.50;;;9.70;99.90;;;;;;5034227;28;20110;-88
2023/01/08 11:26:56;;;;;;;7.47;1.73;;;9.70;99.90;;;;;;5054731;28;20036;-85
2023/01/08 11:29:40;;;;;;;9.05;2.10;;;9.70;99.90;;;;;;5055248;28;20083;-86
2023/01/08 11:32:24;;;;;;;6.80;1.80;;;9.70;99.90;;;;;;5054940;28;20448;-85
2023/01/08 11:34:58;;;;;;;7.57;1.60;;;9.80;99.90;;;;;;5057178;28;20021;-85
2023/01/08 11:37:32;;;;;;;9.68;1.95;;;9.90;99.90;;;;;;5055601;28;20032;-85
2023/01/08 11:39:58;;;;;;;7.25;1.42;;;10.00;99.90;;;;;;5055175;28;20036;-86
2023/01/08 11:42:42;;;;;;;5.38;1.42;;;10.00;99.90;;;;;;5057142;28;20040;-85
2023/01/08 11:45:33;;;;;;;6.03;1.40;;;10.10;99.90;;;;;;5053638;28;20025;-86
2023/01/08 11:48:32;;;;;;;4.05;1.20;;;10.10;99.90;;;;;;5052582;28;20508;-85
2023/01/08 11:51:22;;;;;;;6.18;1.35;;;10.10;99.90;;;;;;5054252;28;20025;-85
2023/01/08 11:54:13;;;;;;;4.68;1.38;;;10.10;99.90;;;;;;5036288;28;20111;-86
2023/01/08 11:57:06;;;;;;;5.97;1.70;;;10.30;99.90;;;;;;5057744;28;20059;-86
2023/01/08 11:59:41;;;;;;;3.83;1.02;;;10.30;99.90;;;;;;5062691;28;20456;-91
2023/01/08 12:02:07;;;;;;;3.38;1.10;;;10.40;99.90;;;;;;5068192;28;20033;-86
2023/01/08 12:04:44;;;;;;;3.35;0.90;;;10.60;99.90;;;;;;5074001;28;20036;-86
2023/01/08 12:07:19;;;;;;;2.47;0.80;;;10.70;99.90;;;;;;5075500;28;20076;-87
2023/01/08 12:09:51;;;;;;;3.53;1.10;;;10.80;99.90;;;;;;5063467;28;20053;-86
2023/01/08 12:12:45;;;;;;;3.15;0.90;;;10.80;99.90;;;;;;5069415;28;20025;-84
2023/01/08 12:15:19;;;;;;;2.60;1.00;;;10.90;99.90;;;;;;5077218;28;20068;-86
2023/01/08 12:17:51;;;;;;;1.70;0.60;;;11.00;99.90;;;;;;5058426;28;20036;-84
2023/01/08 12:20:38;;;;;;;3.50;0.70;;;11.10;99.90;;;;;;5055762;28;20416;-84
2023/01/08 12:23:34;;;;;;;3.03;0.93;;;11.10;99.90;;;;;;5055712;28;20021;-88
2023/01/08 12:26:27;;;;;;;1.83;0.80;;;11.20;99.90;;;;;;5055144;28;20021;-86
2023/01/08 12:29:11;;;;;;;1.83;0.70;;;11.30;99.90;;;;;;5055528;28;20037;-86
2023/01/08 12:31:51;;;;;;;1.25;0.47;;;11.30;99.90;;;;;;5055724;28;20029;-86
2023/01/08 12:34:55;;;;;;;3.58;0.82;;;11.30;99.90;;;;;;5054434;28;20032;-88
2023/01/08 12:37:45;;;;;;;3.55;0.70;;;11.30;99.90;;;;;;5052474;28;20093;-86
2023/01/08 12:40:22;;;;;;;1.75;0.70;;;11.20;99.90;;;;;;5054903;28;20040;-88
2023/01/08 12:42:47;;;;;;;1.75;0.60;;;11.20;99.90;;;;;;5053690;28;20025;-89
2023/01/08 12:45:27;;;;;;;3.33;1.40;;;11.30;99.90;;;;;;5037156;28;20128;-88
2023/01/08 12:48:06;;;;;;;1.35;0.75;;;11.30;99.90;;;;;;5054778;28;20029;-89
2023/01/08 12:51:12;;;;;;;4.10;1.40;;;11.30;99.90;;;;;;5038587;28;20035;-88
2023/01/08 12:54:03;;;;;;;2.00;0.80;;;11.30;99.90;;;;;;5053998;28;20047;-86
2023/01/08 12:56:38;;;;;;;0.88;0.50;;;11.40;99.90;;;;;;5053835;28;20480;-84
2023/01/08 12:59:36;;;;;;;1.60;0.70;;;11.40;99.90;;;;;;5053834;28;20045;-88
2023/01/08 13:02:26;;;;;;;1.17;0.70;;;11.30;99.90;;;;;;5057474;28;20063;-86
2023/01/08 13:04:54;;;;;;;2.38;0.90;;;11.30;99.90;;;;;;5066307;28;20024;-86
2023/01/08 13:07:29;;;;;;;0.90;0.50;;;11.30;99.90;;;;;;5058387;28;20036;-86
2023/01/08 13:10:05;;;;;;;2.65;0.63;;;11.30;99.90;;;;;;5053464;28;20024;-88